Terminal Aerodrome Forecast
Issued by NWS

Home | Current Version | Previous Version | Text Only | Print | Product List | Glossary On
Versions: 1 2 3 4 5 6 7 8 9 10 11 12 13 14 15 16 17
000
FTUS45 KABQ 301334 AAA
TAFLVS
TAF AMD
KLVS 301334Z 3014/3112 05004KT P6SM SCT003 OVC028
     FM301500 08005KT P6SM BKN040
     FM301900 17011KT P6SM VCSH BKN060
      TEMPO 3023/3103 4SM TSRA OVC025CB
     FM310300 14008KT 5SM -SHRA OVC030=

USA.gov is the U.S. government's official web portal to all federal, state and local government web resources and services.